createdAt,value
2023-03-13T00:00:27.586Z,722.00
2023-03-13T00:01:27.606Z,722.00
2023-03-13T00:02:27.604Z,722.00
2023-03-13T00:03:27.534Z,722.00
2023-03-13T00:04:27.585Z,721.00
2023-03-13T00:05:27.518Z,721.00
2023-03-13T00:06:27.526Z,722.00
2023-03-13T00:07:27.532Z,722.00
2023-03-13T00:08:27.474Z,722.00
2023-03-13T00:09:27.481Z,722.00
2023-03-13T00:10:27.459Z,722.00
2023-03-13T00:11:27.457Z,722.00
2023-03-13T00:12:27.439Z,721.00
2023-03-13T00:13:27.450Z,722.00
2023-03-13T00:14:27.403Z,722.00
2023-03-13T00:15:27.380Z,721.00
2023-03-13T00:16:27.443Z,722.00
2023-03-13T00:17:27.342Z,722.00
2023-03-13T00:18:27.370Z,722.00
2023-03-13T00:19:27.350Z,722.00
2023-03-13T00:20:27.351Z,722.00
2023-03-13T00:21:27.341Z,721.00
2023-03-13T00:22:27.308Z,721.00
2023-03-13T00:23:27.313Z,722.00
2023-03-13T00:24:27.276Z,722.00
2023-03-13T00:25:27.259Z,722.00
2023-03-13T00:26:27.261Z,722.00
2023-03-13T00:27:27.221Z,722.00
2023-03-13T00:28:27.234Z,722.00
2023-03-13T00:29:27.202Z,721.00
2023-03-13T00:30:27.267Z,721.00
2023-03-13T00:31:27.405Z,722.00
2023-03-13T00:32:27.217Z,722.00
2023-03-13T00:33:27.157Z,722.00
2023-03-13T00:34:27.132Z,722.00
2023-03-13T00:35:27.185Z,722.00
2023-03-13T00:36:27.158Z,722.00
2023-03-13T00:37:27.097Z,722.00
2023-03-13T00:38:27.100Z,722.00
2023-03-13T00:39:27.065Z,722.00
2023-03-13T00:40:27.089Z,722.00
2023-03-13T00:41:27.040Z,722.00
2023-03-13T00:42:27.041Z,722.00
2023-03-13T00:43:27.020Z,722.00
2023-03-13T00:44:26.992Z,722.00
2023-03-13T00:45:26.983Z,722.00
2023-03-13T00:46:27.112Z,722.00
2023-03-13T00:47:26.999Z,722.00
2023-03-13T00:48:26.970Z,722.00
2023-03-13T00:49:26.935Z,722.00
2023-03-13T00:50:26.932Z,722.00
2023-03-13T00:51:27.366Z,722.00
2023-03-13T00:52:26.894Z,722.00
2023-03-13T00:53:26.927Z,722.00
2023-03-13T00:54:26.873Z,722.00
2023-03-13T00:55:26.837Z,722.00
2023-03-13T00:56:26.850Z,722.00
2023-03-13T00:57:26.816Z,722.00
2023-03-13T00:58:26.853Z,722.00
2023-03-13T00:59:26.830Z,722.00
2023-03-13T01:00:26.803Z,722.00
2023-03-13T01:01:26.770Z,722.00
2023-03-13T01:02:26.893Z,722.00
2023-03-13T01:03:26.991Z,722.00
2023-03-13T01:04:26.760Z,722.00
2023-03-13T01:05:26.736Z,722.00
2023-03-13T01:06:26.731Z,722.00
2023-03-13T01:07:26.684Z,722.00
2023-03-13T01:08:26.688Z,722.00
2023-03-13T01:09:26.689Z,722.00
2023-03-13T01:10:26.675Z,722.00
2023-03-13T01:11:26.636Z,722.00
2023-03-13T01:12:26.679Z,721.00
2023-03-13T01:13:26.605Z,722.00
2023-03-13T01:14:26.638Z,721.00
2023-03-13T01:15:26.634Z,722.00
2023-03-13T01:16:26.594Z,722.00
2023-03-13T01:17:26.579Z,721.00
2023-03-13T01:18:26.573Z,721.00
2023-03-13T01:19:26.578Z,721.00
2023-03-13T01:20:26.533Z,722.00
2023-03-13T01:21:26.527Z,721.00
2023-03-13T01:22:26.532Z,721.00
2023-03-13T01:23:26.479Z,722.00
2023-03-13T01:24:26.490Z,722.00
2023-03-13T01:25:26.469Z,722.00
2023-03-13T01:26:26.459Z,722.00
2023-03-13T01:27:26.433Z,721.00
2023-03-13T01:28:26.444Z,722.00
2023-03-13T01:29:26.441Z,722.00
2023-03-13T01:30:26.437Z,722.00
2023-03-13T01:31:26.457Z,721.00
2023-03-13T01:32:26.421Z,721.00
2023-03-13T01:33:26.337Z,721.00
2023-03-13T01:34:26.343Z,721.00
2023-03-13T01:35:26.370Z,721.00
2023-03-13T01:36:26.345Z,721.00
2023-03-13T01:37:26.311Z,721.00
2023-03-13T01:38:26.302Z,721.00
2023-03-13T01:39:26.266Z,721.00
2023-03-13T01:40:26.258Z,722.00
2023-03-13T01:41:26.314Z,722.00
2023-03-13T01:42:26.255Z,722.00
2023-03-13T01:43:27.465Z,722.00
2023-03-13T01:44:26.224Z,721.00
2023-03-13T01:45:26.188Z,722.00
2023-03-13T01:46:26.215Z,722.00
2023-03-13T01:47:26.199Z,722.00
2023-03-13T01:48:26.161Z,721.00
2023-03-13T01:49:26.129Z,721.00
2023-03-13T01:50:26.146Z,722.00
2023-03-13T01:51:26.110Z,721.00
2023-03-13T01:52:26.157Z,721.00
2023-03-13T01:53:26.101Z,721.00
2023-03-13T01:54:26.130Z,722.00
2023-03-13T01:55:26.051Z,722.00
2023-03-13T01:56:26.057Z,721.00
2023-03-13T01:57:26.065Z,722.00
2023-03-13T01:58:26.037Z,722.00
2023-03-13T01:59:26.027Z,721.00
2023-03-13T02:00:26.022Z,722.00
2023-03-13T02:01:26.028Z,722.00
2023-03-13T02:02:26.017Z,721.00
2023-03-13T02:03:25.963Z,721.00
2023-03-13T02:04:25.958Z,721.00
2023-03-13T02:05:25.955Z,722.00
2023-03-13T02:06:25.924Z,721.00
2023-03-13T02:07:25.936Z,721.00
2023-03-13T02:08:25.901Z,721.00
2023-03-13T02:09:25.901Z,721.00
2023-03-13T02:10:25.900Z,721.00
2023-03-13T02:11:25.842Z,721.00
2023-03-13T02:12:25.834Z,722.00
2023-03-13T02:13:25.872Z,722.00
2023-03-13T02:14:25.829Z,722.00
2023-03-13T02:15:25.812Z,722.00
2023-03-13T02:16:25.842Z,722.00
2023-03-13T02:17:25.764Z,722.00
2023-03-13T02:18:25.765Z,722.00
2023-03-13T02:19:25.753Z,722.00
2023-03-13T02:20:25.758Z,721.00
2023-03-13T02:21:25.710Z,722.00
2023-03-13T02:22:25.721Z,722.00
2023-03-13T02:23:25.696Z,721.00
2023-03-13T02:24:25.702Z,721.00
2023-03-13T02:25:25.655Z,721.00
2023-03-13T02:26:25.661Z,721.00
2023-03-13T02:27:25.673Z,721.00
2023-03-13T02:28:25.634Z,721.00
2023-03-13T02:29:25.601Z,721.00
2023-03-13T02:30:25.626Z,722.00
2023-03-13T02:31:25.614Z,722.00
2023-03-13T02:32:25.644Z,722.00
2023-03-13T02:33:25.560Z,722.00
2023-03-13T02:34:25.556Z,722.00
2023-03-13T02:35:25.529Z,722.00
2023-03-13T02:36:25.565Z,722.00
2023-03-13T02:37:25.508Z,722.00
2023-03-13T02:38:25.506Z,722.00
2023-03-13T02:39:25.492Z,722.00
2023-03-13T02:40:25.518Z,722.00
2023-03-13T02:41:25.469Z,722.00
2023-03-13T02:42:25.451Z,722.00
2023-03-13T02:43:25.410Z,722.00
2023-03-13T02:44:25.427Z,722.00
2023-03-13T02:45:25.425Z,722.00
2023-03-13T02:46:25.516Z,722.00
2023-03-13T02:47:25.369Z,722.00
2023-03-13T02:48:25.427Z,722.00
2023-03-13T02:49:25.374Z,722.00
2023-03-13T02:50:25.368Z,722.00
2023-03-13T02:51:25.346Z,722.00
2023-03-13T02:52:25.348Z,722.00
2023-03-13T02:53:25.319Z,722.00
2023-03-13T02:54:25.296Z,722.00
2023-03-13T02:55:25.294Z,723.00
2023-03-13T02:56:25.329Z,723.00
2023-03-13T02:57:25.239Z,723.00
2023-03-13T02:58:25.228Z,723.00
2023-03-13T02:59:25.237Z,722.00
2023-03-13T03:00:25.200Z,722.00
2023-03-13T03:01:25.180Z,722.00
2023-03-13T03:02:25.217Z,723.00
2023-03-13T03:03:25.147Z,722.00
2023-03-13T03:04:25.170Z,723.00
2023-03-13T03:05:25.151Z,723.00
2023-03-13T03:06:25.114Z,723.00
2023-03-13T03:07:25.116Z,723.00
2023-03-13T03:08:25.105Z,723.00
2023-03-13T03:09:25.072Z,723.00
2023-03-13T03:10:25.101Z,723.00
2023-03-13T03:11:25.066Z,723.00
2023-03-13T03:12:25.057Z,723.00
2023-03-13T03:13:25.036Z,723.00
2023-03-13T03:14:25.016Z,723.00
2023-03-13T03:15:25.033Z,723.00
2023-03-13T03:16:25.110Z,723.00
2023-03-13T03:17:24.989Z,723.00
2023-03-13T03:18:25.015Z,723.00
2023-03-13T03:19:24.971Z,723.00
2023-03-13T03:20:24.978Z,723.00
2023-03-13T03:21:24.936Z,723.00
2023-03-13T03:22:24.912Z,723.00
2023-03-13T03:23:24.906Z,723.00
2023-03-13T03:24:24.903Z,724.00
2023-03-13T03:25:24.879Z,724.00
2023-03-13T03:26:24.852Z,723.00
2023-03-13T03:27:24.850Z,723.00
2023-03-13T03:28:24.874Z,723.00
2023-03-13T03:29:24.858Z,723.00
2023-03-13T03:30:24.790Z,723.00
2023-03-13T03:31:24.867Z,723.00
2023-03-13T03:32:24.853Z,724.00
2023-03-13T03:33:24.759Z,724.00
2023-03-13T03:34:24.750Z,724.00
2023-03-13T03:35:24.763Z,724.00
2023-03-13T03:36:24.752Z,723.00
2023-03-13T03:37:24.720Z,724.00
2023-03-13T03:38:24.697Z,724.00
2023-03-13T03:39:24.709Z,724.00
2023-03-13T03:40:24.668Z,724.00
2023-03-13T03:41:24.708Z,723.00
2023-03-13T03:42:24.624Z,723.00
2023-03-13T03:43:24.649Z,723.00
2023-03-13T03:44:24.632Z,723.00
2023-03-13T03:45:24.608Z,724.00
2023-03-13T03:46:24.641Z,724.00
2023-03-13T03:47:24.632Z,723.00
2023-03-13T03:48:24.576Z,723.00
2023-03-13T03:49:24.579Z,723.00
2023-03-13T03:50:24.519Z,723.00
2023-03-13T03:51:24.529Z,723.00
2023-03-13T03:52:24.529Z,723.00
2023-03-13T03:53:24.499Z,723.00
2023-03-13T03:54:24.466Z,723.00
2023-03-13T03:55:24.524Z,723.00
2023-03-13T03:56:24.450Z,723.00
2023-03-13T03:57:24.434Z,724.00
2023-03-13T03:58:24.433Z,724.00
2023-03-13T03:59:24.434Z,723.00
2023-03-13T04:00:24.425Z,723.00
2023-03-13T04:01:24.399Z,723.00
2023-03-13T04:02:24.409Z,723.00
2023-03-13T04:03:24.499Z,723.00
2023-03-13T04:04:24.350Z,723.00
2023-03-13T04:05:24.353Z,723.00
2023-03-13T04:06:24.320Z,723.00
2023-03-13T04:07:24.332Z,723.00
2023-03-13T04:08:24.331Z,723.00
2023-03-13T04:09:24.304Z,723.00
2023-03-13T04:10:24.275Z,723.00
2023-03-13T04:11:24.281Z,723.00
2023-03-13T04:12:24.233Z,723.00
2023-03-13T04:13:24.274Z,723.00
2023-03-13T04:14:24.233Z,723.00
2023-03-13T04:15:24.230Z,724.00
2023-03-13T04:16:24.245Z,723.00
2023-03-13T04:17:24.171Z,723.00
2023-03-13T04:18:24.197Z,723.00
2023-03-13T04:19:24.151Z,724.00
2023-03-13T04:20:24.143Z,724.00
2023-03-13T04:21:24.145Z,724.00
2023-03-13T04:22:24.127Z,724.00
2023-03-13T04:23:24.097Z,724.00
2023-03-13T04:24:24.103Z,724.00
2023-03-13T04:25:24.090Z,724.00
2023-03-13T04:26:24.070Z,724.00
2023-03-13T04:27:24.063Z,723.00
2023-03-13T04:28:24.036Z,723.00
2023-03-13T04:29:24.043Z,723.00
2023-03-13T04:30:24.021Z,723.00
2023-03-13T04:31:24.037Z,724.00
2023-03-13T04:32:24.107Z,724.00
2023-03-13T04:33:24.002Z,724.00
2023-03-13T04:34:24.014Z,724.00
2023-03-13T04:35:23.962Z,724.00
2023-03-13T04:36:23.932Z,724.00
2023-03-13T04:37:23.967Z,724.00
2023-03-13T04:38:23.881Z,724.00
2023-03-13T04:39:23.905Z,724.00
2023-03-13T04:40:23.905Z,724.00
2023-03-13T04:41:23.900Z,724.00
2023-03-13T04:42:23.836Z,724.00
2023-03-13T04:43:23.847Z,724.00
2023-03-13T04:44:23.816Z,724.00
2023-03-13T04:45:23.825Z,724.00
2023-03-13T04:46:23.865Z,724.00
2023-03-13T04:47:23.803Z,724.00
2023-03-13T04:48:23.765Z,724.00
2023-03-13T04:49:23.752Z,723.00
2023-03-13T04:50:23.746Z,723.00
2023-03-13T04:51:23.733Z,724.00
2023-03-13T04:52:23.700Z,724.00
2023-03-13T04:53:23.715Z,724.00
2023-03-13T04:54:23.684Z,724.00
2023-03-13T04:55:23.658Z,724.00
2023-03-13T04:56:41.070Z,724.00
2023-03-13T04:57:23.643Z,724.00
2023-03-13T04:58:23.664Z,724.00
2023-03-13T04:59:23.648Z,724.00
2023-03-13T05:00:23.635Z,724.00
2023-03-13T05:01:23.614Z,724.00
2023-03-13T05:02:23.563Z,724.00
2023-03-13T05:03:23.588Z,724.00
2023-03-13T05:04:23.578Z,724.00
2023-03-13T05:05:23.594Z,724.00
2023-03-13T05:06:23.509Z,724.00
2023-03-13T05:07:23.545Z,723.00
2023-03-13T05:08:23.490Z,723.00
2023-03-13T05:09:23.479Z,723.00
2023-03-13T05:10:23.470Z,724.00
2023-03-13T05:11:23.460Z,724.00
2023-03-13T05:12:23.449Z,724.00
2023-03-13T05:13:23.472Z,724.00
2023-03-13T05:14:23.426Z,724.00
2023-03-13T05:15:23.424Z,724.00
2023-03-13T05:16:23.468Z,724.00
2023-03-13T05:17:23.389Z,724.00
2023-03-13T05:18:23.371Z,724.00
2023-03-13T05:19:23.381Z,724.00
2023-03-13T05:20:23.329Z,724.00
2023-03-13T05:21:23.357Z,724.00
2023-03-13T05:22:23.316Z,723.00
2023-03-13T05:23:23.318Z,723.00
2023-03-13T05:24:23.289Z,724.00
2023-03-13T05:25:23.266Z,724.00
2023-03-13T05:26:23.247Z,724.00
2023-03-13T05:27:23.250Z,724.00
2023-03-13T05:28:23.227Z,723.00
2023-03-13T05:29:23.240Z,723.00
2023-03-13T05:30:23.213Z,723.00
2023-03-13T05:31:23.220Z,723.00
2023-03-13T05:32:23.281Z,723.00
2023-03-13T05:33:23.209Z,723.00
2023-03-13T05:34:23.138Z,723.00
2023-03-13T05:35:23.179Z,723.00
2023-03-13T05:36:23.154Z,723.00
2023-03-13T05:37:23.155Z,723.00
2023-03-13T05:38:23.105Z,723.00
2023-03-13T05:39:23.142Z,723.00
2023-03-13T05:40:23.071Z,723.00
2023-03-13T05:41:23.052Z,723.00
2023-03-13T05:42:23.066Z,723.00
2023-03-13T05:43:23.046Z,723.00
2023-03-13T05:44:23.044Z,723.00
2023-03-13T05:45:23.034Z,723.00
2023-03-13T05:46:23.104Z,724.00
2023-03-13T05:47:22.995Z,724.00
2023-03-13T05:48:23.002Z,723.00
2023-03-13T05:49:22.998Z,723.00
2023-03-13T05:50:22.977Z,723.00
2023-03-13T05:51:22.921Z,723.00
2023-03-13T05:52:22.906Z,723.00
2023-03-13T05:53:22.935Z,723.00
2023-03-13T05:54:22.881Z,723.00
2023-03-13T05:55:22.915Z,723.00
2023-03-13T05:56:22.876Z,723.00
2023-03-13T05:57:22.838Z,723.00
2023-03-13T05:58:22.854Z,724.00
2023-03-13T05:59:22.872Z,724.00
2023-03-13T06:00:22.794Z,723.00
2023-03-13T06:01:22.818Z,723.00
2023-03-13T06:02:22.763Z,723.00
2023-03-13T06:03:22.771Z,723.00
2023-03-13T06:04:22.923Z,723.00
2023-03-13T06:05:22.790Z,723.00
2023-03-13T06:06:22.740Z,723.00
2023-03-13T06:07:22.744Z,723.00
2023-03-13T06:08:22.715Z,723.00
2023-03-13T06:09:22.698Z,723.00
2023-03-13T06:10:22.671Z,724.00
2023-03-13T06:11:22.657Z,724.00
2023-03-13T06:12:22.638Z,724.00
2023-03-13T06:13:22.622Z,724.00
2023-03-13T06:14:22.627Z,724.00
2023-03-13T06:15:22.650Z,724.00
2023-03-13T06:16:22.630Z,723.00
2023-03-13T06:17:22.593Z,724.00
2023-03-13T06:18:22.546Z,724.00
2023-03-13T06:19:22.535Z,724.00
2023-03-13T06:20:22.551Z,724.00
2023-03-13T06:21:22.540Z,723.00
2023-03-13T06:22:22.506Z,723.00
2023-03-13T06:23:22.493Z,724.00
2023-03-13T06:24:22.489Z,723.00
2023-03-13T06:25:22.545Z,723.00
2023-03-13T06:26:22.465Z,724.00
2023-03-13T06:27:22.445Z,723.00
2023-03-13T06:28:22.450Z,723.00
2023-03-13T06:29:22.431Z,724.00
2023-03-13T06:30:22.403Z,724.00
2023-03-13T06:31:22.499Z,724.00
2023-03-13T06:32:22.480Z,723.00
2023-03-13T06:33:22.426Z,723.00
2023-03-13T06:34:22.347Z,723.00
2023-03-13T06:35:22.322Z,723.00
2023-03-13T06:36:22.354Z,723.00
2023-03-13T06:37:22.444Z,724.00
2023-03-13T06:38:22.304Z,724.00
2023-03-13T06:39:22.304Z,723.00
2023-03-13T06:40:22.288Z,723.00
2023-03-13T06:41:22.243Z,723.00
2023-03-13T06:42:22.257Z,723.00
2023-03-13T06:43:22.238Z,723.00
2023-03-13T06:44:22.216Z,724.00
2023-03-13T06:45:22.194Z,724.00
2023-03-13T06:46:22.275Z,724.00
2023-03-13T06:47:22.191Z,724.00
2023-03-13T06:48:22.181Z,724.00
2023-03-13T06:49:22.150Z,723.00
2023-03-13T06:50:22.159Z,723.00
2023-03-13T06:51:22.202Z,723.00
2023-03-13T06:52:26.499Z,724.00
2023-03-13T06:53:22.123Z,724.00
2023-03-13T06:54:22.066Z,724.00
2023-03-13T06:55:22.068Z,724.00
2023-03-13T06:56:22.085Z,724.00
2023-03-13T06:57:22.102Z,724.00
2023-03-13T06:58:32.214Z,723.00
2023-03-13T06:59:22.077Z,724.00
2023-03-13T07:00:22.013Z,724.00
2023-03-13T07:01:22.055Z,724.00
2023-03-13T07:02:22.031Z,724.00
2023-03-13T07:03:21.990Z,724.00
2023-03-13T07:04:22.002Z,724.00
2023-03-13T07:05:21.991Z,724.00
2023-03-13T07:06:21.967Z,724.00
2023-03-13T07:07:31.235Z,724.00
2023-03-13T07:08:21.915Z,724.00
2023-03-13T07:09:21.903Z,724.00
2023-03-13T07:10:21.896Z,724.00
2023-03-13T07:11:21.867Z,724.00
2023-03-13T07:12:21.848Z,724.00
2023-03-13T07:13:21.903Z,725.00
2023-03-13T07:14:21.817Z,724.00
2023-03-13T07:15:21.821Z,724.00
2023-03-13T07:16:21.919Z,724.00
2023-03-13T07:17:21.916Z,724.00
2023-03-13T07:18:21.828Z,724.00
2023-03-13T07:19:21.803Z,724.00
2023-03-13T07:20:21.817Z,724.00
2023-03-13T07:21:21.745Z,724.00
2023-03-13T07:22:21.738Z,724.00
2023-03-13T07:23:21.720Z,725.00
2023-03-13T07:24:21.710Z,725.00
2023-03-13T07:25:21.692Z,725.00
2023-03-13T07:26:21.737Z,724.00
2023-03-13T07:27:21.726Z,725.00
2023-03-13T07:28:21.668Z,725.00
2023-03-13T07:29:21.658Z,725.00
2023-03-13T07:30:21.620Z,724.00
2023-03-13T07:31:21.675Z,724.00
2023-03-13T07:32:21.600Z,725.00
2023-03-13T07:33:21.591Z,724.00
2023-03-13T07:34:21.562Z,725.00
2023-03-13T07:35:21.587Z,724.00
2023-03-13T07:36:21.656Z,724.00
2023-03-13T07:37:21.521Z,724.00
2023-03-13T07:38:21.544Z,725.00
2023-03-13T07:39:21.524Z,724.00
2023-03-13T07:40:21.521Z,724.00
2023-03-13T07:41:21.450Z,724.00
2023-03-13T07:42:21.498Z,724.00
2023-03-13T07:43:21.435Z,724.00
2023-03-13T07:44:21.422Z,724.00
2023-03-13T07:45:21.427Z,725.00
2023-03-13T07:46:21.510Z,725.00
2023-03-13T07:47:21.410Z,724.00
2023-03-13T07:48:21.401Z,724.00
2023-03-13T07:49:21.396Z,725.00
2023-03-13T07:50:21.418Z,725.00
2023-03-13T07:51:27.695Z,724.00
2023-03-13T07:52:21.329Z,725.00
2023-03-13T07:53:21.446Z,725.00
2023-03-13T07:54:21.315Z,725.00
2023-03-13T07:55:21.310Z,725.00
2023-03-13T07:56:21.278Z,725.00
2023-03-13T07:57:21.279Z,725.00
2023-03-13T07:58:21.269Z,725.00
2023-03-13T07:59:21.235Z,725.00
2023-03-13T08:00:21.240Z,725.00
2023-03-13T08:01:22.531Z,725.00
2023-03-13T08:02:21.257Z,725.00
2023-03-13T08:03:21.257Z,725.00
2023-03-13T08:04:21.192Z,725.00
2023-03-13T08:05:21.232Z,725.00
2023-03-13T08:06:21.152Z,725.00
2023-03-13T08:07:21.117Z,725.00
2023-03-13T08:08:21.119Z,725.00
2023-03-13T08:09:21.128Z,725.00
2023-03-13T08:10:21.102Z,725.00
2023-03-13T08:11:21.070Z,725.00
2023-03-13T08:12:21.089Z,725.00
2023-03-13T08:13:21.039Z,725.00
2023-03-13T08:14:21.045Z,725.00
2023-03-13T08:15:21.014Z,725.00
2023-03-13T08:16:21.110Z,725.00
2023-03-13T08:17:20.970Z,725.00
2023-03-13T08:18:20.986Z,725.00
2023-03-13T08:19:20.942Z,725.00
2023-03-13T08:20:20.985Z,725.00
2023-03-13T08:21:20.944Z,725.00
2023-03-13T08:22:20.918Z,725.00
2023-03-13T08:23:20.913Z,726.00
2023-03-13T08:24:20.950Z,725.00
2023-03-13T08:25:20.907Z,726.00
2023-03-13T08:26:20.874Z,726.00
2023-03-13T08:27:20.856Z,726.00
2023-03-13T08:28:20.893Z,726.00
2023-03-13T08:29:20.860Z,726.00
2023-03-13T08:30:20.834Z,726.00
2023-03-13T08:31:20.897Z,726.00
2023-03-13T08:32:20.841Z,725.00
2023-03-13T08:33:20.793Z,726.00
2023-03-13T08:34:20.838Z,726.00
2023-03-13T08:35:20.824Z,726.00
2023-03-13T08:36:20.802Z,726.00
2023-03-13T08:37:20.725Z,726.00
2023-03-13T08:38:20.788Z,726.00
2023-03-13T08:39:20.745Z,726.00
2023-03-13T08:40:20.743Z,726.00
2023-03-13T08:41:20.690Z,726.00
2023-03-13T08:42:20.729Z,726.00
2023-03-13T08:43:20.654Z,726.00
2023-03-13T08:44:20.661Z,726.00
2023-03-13T08:45:20.689Z,726.00
2023-03-13T08:46:20.656Z,726.00
2023-03-13T08:47:20.612Z,726.00
2023-03-13T08:48:20.570Z,726.00
2023-03-13T08:49:20.562Z,726.00
2023-03-13T08:50:20.567Z,726.00
2023-03-13T08:51:20.528Z,726.00
2023-03-13T08:52:20.536Z,727.00
2023-03-13T08:53:20.519Z,727.00
2023-03-13T08:54:20.514Z,727.00
2023-03-13T08:55:20.493Z,726.00
2023-03-13T08:56:20.480Z,727.00
2023-03-13T08:57:20.453Z,727.00
2023-03-13T08:58:20.448Z,727.00
2023-03-13T08:59:20.412Z,727.00
2023-03-13T09:00:20.435Z,727.00
2023-03-13T09:01:20.461Z,727.00
2023-03-13T09:02:20.424Z,727.00
2023-03-13T09:03:20.531Z,727.00
2023-03-13T09:04:20.393Z,727.00
2023-03-13T09:05:20.356Z,727.00
2023-03-13T09:06:20.352Z,727.00
2023-03-13T09:07:20.323Z,727.00
2023-03-13T09:08:20.332Z,727.00
2023-03-13T09:09:20.607Z,727.00
2023-03-13T09:10:20.330Z,727.00
2023-03-13T09:11:20.275Z,727.00
2023-03-13T09:12:30.373Z,728.00
2023-03-13T09:13:20.265Z,727.00
2023-03-13T09:14:20.386Z,728.00
2023-03-13T09:15:20.252Z,727.00
2023-03-13T09:16:20.457Z,728.00
2023-03-13T09:17:20.222Z,728.00
2023-03-13T09:18:20.178Z,728.00
2023-03-13T09:19:20.254Z,728.00
2023-03-13T09:20:20.181Z,728.00
2023-03-13T09:21:20.248Z,728.00
2023-03-13T09:22:20.136Z,728.00
2023-03-13T09:23:20.122Z,728.00
2023-03-13T09:24:20.157Z,728.00
2023-03-13T09:25:20.115Z,728.00
2023-03-13T09:26:22.766Z,728.00
2023-03-13T09:27:20.038Z,728.00
2023-03-13T09:28:20.042Z,728.00
2023-03-13T09:29:20.044Z,728.00
2023-03-13T09:30:20.031Z,728.00
2023-03-13T09:31:20.124Z,728.00
2023-03-13T09:32:20.036Z,728.00
2023-03-13T09:33:19.979Z,728.00
2023-03-13T09:34:19.974Z,728.00
2023-03-13T09:35:20.144Z,728.00
2023-03-13T09:36:22.113Z,728.00
2023-03-13T09:37:20.115Z,728.00
2023-03-13T09:38:20.009Z,728.00
2023-03-13T09:39:19.900Z,728.00
2023-03-13T09:40:19.910Z,728.00
2023-03-13T09:41:19.872Z,728.00
2023-03-13T09:42:19.893Z,728.00
2023-03-13T09:43:19.869Z,728.00
2023-03-13T09:44:19.849Z,728.00
2023-03-13T09:45:19.828Z,728.00
2023-03-13T09:46:19.855Z,728.00
2023-03-13T09:47:19.961Z,728.00
2023-03-13T09:48:19.796Z,728.00
2023-03-13T09:49:19.772Z,728.00
2023-03-13T09:50:19.769Z,728.00
2023-03-13T09:51:19.733Z,728.00
2023-03-13T09:52:19.745Z,728.00
2023-03-13T09:53:19.694Z,728.00
2023-03-13T09:54:19.733Z,728.00
2023-03-13T09:55:19.697Z,729.00
2023-03-13T09:56:19.675Z,729.00
2023-03-13T09:57:19.668Z,729.00
2023-03-13T09:58:19.644Z,729.00
2023-03-13T09:59:19.670Z,730.00
2023-03-13T10:00:19.625Z,730.00
2023-03-13T10:01:19.619Z,730.00
2023-03-13T10:02:19.599Z,730.00
2023-03-13T10:03:19.593Z,730.00
2023-03-13T10:04:19.633Z,730.00
2023-03-13T10:05:19.569Z,730.00
2023-03-13T10:06:19.530Z,730.00
2023-03-13T10:07:19.523Z,730.00
2023-03-13T10:08:19.553Z,730.00
2023-03-13T10:09:19.503Z,730.00
2023-03-13T10:10:19.453Z,729.00
2023-03-13T10:11:19.459Z,729.00
2023-03-13T10:12:19.469Z,729.00
2023-03-13T10:13:19.448Z,729.00
2023-03-13T10:14:19.428Z,729.00
2023-03-13T10:15:19.419Z,729.00
2023-03-13T10:16:19.639Z,729.00
2023-03-13T10:17:19.388Z,729.00
2023-03-13T10:18:19.352Z,729.00
2023-03-13T10:19:19.346Z,729.00
2023-03-13T10:20:19.363Z,729.00
2023-03-13T10:21:19.320Z,729.00
2023-03-13T10:22:19.344Z,729.00
2023-03-13T10:23:19.299Z,730.00
2023-03-13T10:24:19.307Z,730.00
2023-03-13T10:25:19.288Z,731.00
2023-03-13T10:26:19.274Z,731.00
2023-03-13T10:27:19.279Z,732.00
2023-03-13T10:28:19.229Z,732.00
2023-03-13T10:29:19.240Z,732.00
2023-03-13T10:30:19.241Z,733.00
2023-03-13T10:31:19.302Z,734.00
2023-03-13T10:32:19.278Z,734.00
2023-03-13T10:33:19.158Z,734.00
2023-03-13T10:34:19.139Z,735.00
2023-03-13T10:35:19.124Z,735.00
2023-03-13T10:36:19.146Z,734.00
2023-03-13T10:37:19.129Z,735.00
2023-03-13T10:38:19.126Z,734.00
2023-03-13T10:39:19.074Z,735.00
2023-03-13T10:40:19.142Z,735.00
2023-03-13T10:41:19.057Z,734.00
2023-03-13T10:42:19.066Z,734.00
2023-03-13T10:43:21.239Z,735.00
2023-03-13T10:44:19.032Z,735.00
2023-03-13T10:45:19.015Z,736.00
2023-03-13T10:46:19.015Z,737.00
2023-03-13T10:47:18.971Z,737.00
2023-03-13T10:48:18.948Z,738.00
2023-03-13T10:49:18.939Z,738.00
2023-03-13T10:50:18.982Z,738.00
2023-03-13T10:51:18.930Z,738.00
2023-03-13T10:52:18.902Z,738.00
2023-03-13T10:53:18.887Z,738.00
2023-03-13T10:54:18.901Z,738.00
2023-03-13T10:55:18.859Z,739.00
2023-03-13T10:56:18.855Z,739.00
2023-03-13T10:57:18.834Z,739.00
2023-03-13T10:58:18.860Z,740.00
2023-03-13T10:59:18.784Z,740.00
2023-03-13T11:00:18.982Z,740.00
2023-03-13T11:01:18.803Z,741.00
2023-03-13T11:02:18.837Z,741.00
2023-03-13T11:03:18.826Z,742.00
2023-03-13T11:04:18.780Z,742.00
2023-03-13T11:05:18.727Z,742.00
2023-03-13T11:06:18.716Z,741.00
2023-03-13T11:07:18.765Z,741.00
2023-03-13T11:08:18.751Z,741.00
2023-03-13T11:09:18.677Z,740.00
2023-03-13T11:10:18.755Z,741.00
2023-03-13T11:11:18.658Z,741.00
2023-03-13T11:12:18.658Z,741.00
2023-03-13T11:13:30.683Z,742.00
2023-03-13T11:14:18.697Z,742.00
2023-03-13T11:15:18.716Z,742.00
2023-03-13T11:16:18.778Z,743.00
2023-03-13T11:17:18.596Z,743.00
2023-03-13T11:18:18.601Z,744.00
2023-03-13T11:19:18.542Z,744.00
2023-03-13T11:20:18.565Z,744.00
2023-03-13T11:21:18.752Z,744.00
2023-03-13T11:22:18.546Z,744.00
2023-03-13T11:23:18.513Z,745.00
2023-03-13T11:24:18.495Z,746.00
2023-03-13T11:25:18.454Z,746.00
2023-03-13T11:26:18.450Z,746.00
2023-03-13T11:27:18.475Z,747.00
2023-03-13T11:28:18.409Z,747.00
2023-03-13T11:29:18.427Z,746.00
2023-03-13T11:30:18.400Z,747.00
2023-03-13T11:31:18.428Z,747.00
2023-03-13T11:32:18.493Z,748.00
2023-03-13T11:33:18.365Z,748.00
2023-03-13T11:34:18.321Z,748.00
2023-03-13T11:35:18.302Z,749.00
2023-03-13T11:36:18.320Z,749.00
2023-03-13T11:37:18.292Z,749.00
2023-03-13T11:38:18.285Z,749.00
2023-03-13T11:39:18.268Z,749.00
2023-03-13T11:40:18.261Z,749.00
2023-03-13T11:41:18.250Z,749.00
2023-03-13T11:42:18.275Z,749.00
2023-03-13T11:43:25.534Z,749.00
2023-03-13T11:44:18.228Z,750.00
2023-03-13T11:45:18.172Z,750.00
2023-03-13T11:46:18.277Z,750.00
2023-03-13T11:47:18.149Z,751.00
2023-03-13T11:48:18.161Z,751.00
2023-03-13T11:49:18.139Z,751.00
2023-03-13T11:50:18.150Z,751.00
2023-03-13T11:51:20.605Z,751.00
2023-03-13T11:52:18.094Z,751.00
2023-03-13T11:53:18.129Z,751.00
2023-03-13T11:54:18.075Z,751.00
2023-03-13T11:55:18.062Z,750.00
2023-03-13T11:56:18.014Z,750.00
2023-03-13T11:57:18.038Z,749.00
2023-03-13T11:58:18.010Z,749.00
2023-03-13T11:59:18.009Z,749.00
2023-03-13T12:00:17.981Z,749.00
2023-03-13T12:01:18.040Z,749.00
2023-03-13T12:02:17.981Z,749.00
2023-03-13T12:03:18.001Z,749.00
2023-03-13T12:04:17.907Z,749.00
2023-03-13T12:05:18.019Z,749.00
2023-03-13T12:06:27.621Z,750.00
2023-03-13T12:07:17.903Z,751.00
2023-03-13T12:08:17.894Z,751.00
2023-03-13T12:09:17.851Z,751.00
2023-03-13T12:10:17.825Z,751.00
2023-03-13T12:11:17.855Z,751.00
2023-03-13T12:12:17.820Z,751.00
2023-03-13T12:13:17.812Z,751.00
2023-03-13T12:14:17.788Z,751.00
2023-03-13T12:15:19.199Z,751.00
2023-03-13T12:16:17.773Z,752.00
2023-03-13T12:17:17.781Z,753.00
2023-03-13T12:18:17.756Z,753.00
2023-03-13T12:19:17.746Z,753.00
2023-03-13T12:20:17.708Z,753.00
2023-03-13T12:21:17.677Z,754.00
2023-03-13T12:22:17.689Z,754.00
2023-03-13T12:23:17.679Z,755.00
2023-03-13T12:24:17.652Z,755.00
2023-03-13T12:25:17.678Z,754.00
2023-03-13T12:26:17.605Z,755.00
2023-03-13T12:27:17.600Z,754.00
2023-03-13T12:28:17.665Z,754.00